createdAt,value
2022-08-05T00:00:18.501Z,11.70
2022-08-05T00:02:50.794Z,13.63
2022-08-05T00:06:01.876Z,13.60
2022-08-05T00:08:34.199Z,13.20
2022-08-05T00:11:00.550Z,13.38
2022-08-05T00:13:38.906Z,12.70
2022-08-05T00:16:10.864Z,14.38
2022-08-05T00:18:45.554Z,13.60
2022-08-05T00:21:14.976Z,13.82
2022-08-05T00:23:46.859Z,13.48
2022-08-05T00:26:32.362Z,13.90
2022-08-05T00:28:59.996Z,14.63
2022-08-05T00:31:41.456Z,14.80
2022-08-05T00:34:54.675Z,13.30
2022-08-05T00:37:12.760Z,13.20
2022-08-05T00:39:58.794Z,12.70
2022-08-05T00:42:35.289Z,11.95
2022-08-05T00:45:05.580Z,12.52
2022-08-05T00:47:57.001Z,12.10
2022-08-05T00:50:25.438Z,12.35
2022-08-05T00:52:55.254Z,13.55
2022-08-05T00:55:42.290Z,14.35
2022-08-05T00:58:12.702Z,14.02
2022-08-05T01:00:42.229Z,12.52
2022-08-05T01:03:12.630Z,12.75
2022-08-05T01:05:54.544Z,15.05
2022-08-05T01:08:40.661Z,14.00
2022-08-05T01:11:36.800Z,12.80
2022-08-05T01:14:27.220Z,13.98
2022-08-05T01:17:13.754Z,12.98
2022-08-05T01:20:25.731Z,13.32
2022-08-05T01:22:58.079Z,13.77
2022-08-05T01:26:01.005Z,14.80
2022-08-05T01:28:35.334Z,15.00
2022-08-05T01:31:12.879Z,15.70
2022-08-05T01:33:49.145Z,14.30
2022-08-05T01:36:27.983Z,13.77
2022-08-05T01:39:01.141Z,15.65
2022-08-05T01:41:32.569Z,14.63
2022-08-05T01:44:02.100Z,15.02
2022-08-05T01:46:42.511Z,15.30
2022-08-05T01:49:23.675Z,14.07
2022-08-05T01:51:58.249Z,14.07
2022-08-05T01:54:45.784Z,14.73
2022-08-05T01:58:10.035Z,13.30
2022-08-05T02:00:11.968Z,13.32
2022-08-05T02:02:54.387Z,12.52
2022-08-05T02:05:30.155Z,11.15
2022-08-05T02:08:02.114Z,8.60
2022-08-05T02:10:36.521Z,9.25
2022-08-05T02:13:27.764Z,8.85
2022-08-05T02:16:30.286Z,8.48
2022-08-05T02:19:17.704Z,8.13
2022-08-05T02:22:04.688Z,8.45
2022-08-05T02:24:38.937Z,8.43
2022-08-05T02:27:11.083Z,7.45
2022-08-05T02:29:58.972Z,7.03
2022-08-05T02:32:31.854Z,7.18
2022-08-05T02:35:13.685Z,6.22
2022-08-05T02:37:47.598Z,4.63
2022-08-05T02:40:21.937Z,5.65
2022-08-05T02:42:54.210Z,6.13
2022-08-05T02:45:25.210Z,5.43
2022-08-05T02:48:07.702Z,6.00
2022-08-05T02:50:47.039Z,5.40
2022-08-05T02:53:19.423Z,4.53
2022-08-05T02:55:54.420Z,5.15
2022-08-05T02:58:26.701Z,4.45
2022-08-05T03:00:57.043Z,4.65
2022-08-05T03:03:26.501Z,4.18
2022-08-05T03:06:56.160Z,4.00
2022-08-05T03:08:43.174Z,4.68
2022-08-05T03:11:55.323Z,3.33
2022-08-05T03:14:09.386Z,3.08
2022-08-05T03:16:42.320Z,3.00
2022-08-05T03:19:33.015Z,2.95
2022-08-05T03:22:02.346Z,3.05
2022-08-05T03:24:33.610Z,2.97
2022-08-05T03:27:02.827Z,3.45
2022-08-05T03:29:44.442Z,3.25
2022-08-05T03:32:31.007Z,4.07
2022-08-05T03:34:59.857Z,3.55
2022-08-05T03:37:30.690Z,4.60
2022-08-05T03:40:12.010Z,4.20
2022-08-05T03:42:51.655Z,3.60
2022-08-05T03:45:23.086Z,4.20
2022-08-05T03:47:56.804Z,4.60
2022-08-05T03:50:33.653Z,4.05
2022-08-05T03:55:53.358Z,4.35
2022-08-05T03:56:11.461Z,4.90
2022-08-05T03:58:51.396Z,4.78
2022-08-05T04:01:21.150Z,5.75
2022-08-05T04:04:09.019Z,6.15
2022-08-05T04:06:38.609Z,5.25
2022-08-05T04:09:25.942Z,5.68
2022-08-05T04:11:56.591Z,5.20
2022-08-05T04:14:30.296Z,4.50
2022-08-05T04:17:02.955Z,3.80
2022-08-05T04:19:31.161Z,3.30
2022-08-05T04:22:08.179Z,3.00
2022-08-05T04:24:52.682Z,3.25
2022-08-05T04:27:33.185Z,3.15
2022-08-05T04:30:09.562Z,2.92
2022-08-05T04:32:37.765Z,3.08
2022-08-05T04:35:07.463Z,3.40
2022-08-05T04:38:01.143Z,3.90
2022-08-05T04:40:35.398Z,3.58
2022-08-05T04:43:06.288Z,4.43
2022-08-05T04:45:49.008Z,4.07
2022-08-05T04:48:27.481Z,4.30
2022-08-05T04:51:03.593Z,5.38
2022-08-05T04:53:39.791Z,4.45
2022-08-05T04:56:33.365Z,4.65
2022-08-05T04:58:56.508Z,4.47
2022-08-05T05:02:06.075Z,4.18
2022-08-05T05:04:12.114Z,4.63
2022-08-05T05:06:49.299Z,3.97
2022-08-05T05:09:20.291Z,3.40
2022-08-05T05:11:54.065Z,3.45
2022-08-05T05:14:27.744Z,3.58
2022-08-05T05:17:00.467Z,3.83
2022-08-05T05:19:36.891Z,4.13
2022-08-05T05:22:24.496Z,3.45
2022-08-05T05:24:58.322Z,3.25
2022-08-05T05:34:06.183Z,4.22
2022-08-05T05:36:37.291Z,3.38
2022-08-05T05:39:05.133Z,4.00
2022-08-05T05:41:40.013Z,4.65
2022-08-05T05:44:36.848Z,3.85
2022-08-05T05:46:56.225Z,3.72
2022-08-05T05:49:26.351Z,3.67
2022-08-05T05:51:54.955Z,3.50
2022-08-05T05:54:23.040Z,3.95
2022-08-05T05:57:13.908Z,4.38
2022-08-05T05:59:48.795Z,3.60
2022-08-05T06:02:17.178Z,5.32
2022-08-05T06:05:00.482Z,4.05
2022-08-05T06:07:41.548Z,4.50
2022-08-05T06:10:10.738Z,4.00
2022-08-05T06:12:42.366Z,3.78
2022-08-05T06:15:16.195Z,4.30
2022-08-05T06:17:52.604Z,3.60
2022-08-05T06:20:21.877Z,3.58
2022-08-05T06:22:49.850Z,3.50
2022-08-05T06:25:59.717Z,3.75
2022-08-05T06:28:11.173Z,3.90
2022-08-05T06:30:41.340Z,4.35
2022-08-05T06:33:09.807Z,4.50
2022-08-05T06:36:08.323Z,3.70
2022-08-05T06:38:35.862Z,3.95
2022-08-05T06:41:07.664Z,4.40
2022-08-05T06:43:59.265Z,4.05
2022-08-05T06:46:30.123Z,3.95
2022-08-05T06:49:00.901Z,3.85
2022-08-05T06:51:30.755Z,4.57
2022-08-05T06:54:00.412Z,4.47
2022-08-05T06:56:34.104Z,3.58
2022-08-05T06:59:09.698Z,4.35
2022-08-05T07:01:40.665Z,4.38
2022-08-05T07:04:10.338Z,3.65
2022-08-05T07:06:38.042Z,3.60
2022-08-05T07:09:06.060Z,3.35
2022-08-05T07:11:37.155Z,4.05
2022-08-05T07:14:29.084Z,4.07
2022-08-05T07:18:00.304Z,3.70
2022-08-05T07:22:42.351Z,3.75
2022-08-05T07:25:22.394Z,3.60
2022-08-05T07:27:58.181Z,3.58
2022-08-05T07:30:39.207Z,3.75
2022-08-05T07:33:16.063Z,3.67
2022-08-05T07:36:02.247Z,3.72
2022-08-05T07:38:43.663Z,3.35
2022-08-05T07:42:13.074Z,4.05
2022-08-05T07:44:14.078Z,3.72
2022-08-05T07:46:48.216Z,4.43
2022-08-05T07:49:16.389Z,3.80
2022-08-05T07:51:53.625Z,3.75
2022-08-05T07:54:30.655Z,3.80
2022-08-05T07:57:17.748Z,3.55
2022-08-05T07:59:47.916Z,3.63
2022-08-05T08:02:17.932Z,3.58
2022-08-05T08:04:47.566Z,4.13
2022-08-05T08:07:23.232Z,3.40
2022-08-05T08:09:54.885Z,3.30
2022-08-05T08:12:35.429Z,2.95
2022-08-05T08:15:15.233Z,3.03
2022-08-05T08:17:52.367Z,3.30
2022-08-05T08:20:45.433Z,2.72
2022-08-05T08:23:11.541Z,3.20
2022-08-05T08:26:00.595Z,3.08
2022-08-05T08:28:36.410Z,2.75
2022-08-05T08:31:18.958Z,2.85
2022-08-05T08:33:51.649Z,3.00
2022-08-05T08:36:40.248Z,3.28
2022-08-05T08:39:15.635Z,2.58
2022-08-05T08:41:59.781Z,3.03
2022-08-05T08:45:19.601Z,2.80
2022-08-05T08:48:06.695Z,3.25
2022-08-05T08:50:32.732Z,2.78
2022-08-05T08:53:12.004Z,3.05
2022-08-05T08:56:03.440Z,2.80
2022-08-05T08:58:37.644Z,2.65
2022-08-05T09:01:16.835Z,2.45
2022-08-05T09:03:55.158Z,3.20
2022-08-05T09:06:28.079Z,2.75
2022-08-05T09:09:02.607Z,2.50
2022-08-05T09:11:52.860Z,2.40
2022-08-05T09:14:57.338Z,2.92
2022-08-05T09:17:41.265Z,2.60
2022-08-05T09:20:02.807Z,2.60
2022-08-05T09:23:19.583Z,2.97
2022-08-05T09:26:03.735Z,2.60
2022-08-05T09:28:35.283Z,2.60
2022-08-05T09:32:38.742Z,2.50
2022-08-05T09:34:04.161Z,2.60
2022-08-05T09:36:54.430Z,2.65
2022-08-05T09:39:39.563Z,3.10
2022-08-05T09:42:41.082Z,2.75
2022-08-05T09:46:05.058Z,2.63
2022-08-05T09:47:58.629Z,3.00
2022-08-05T09:50:44.791Z,3.10
2022-08-05T09:53:23.062Z,2.88
2022-08-05T09:56:04.510Z,2.78
2022-08-05T09:58:42.351Z,2.70
2022-08-05T10:01:15.699Z,3.00
2022-08-05T10:04:04.132Z,2.67
2022-08-05T10:06:58.956Z,3.00
2022-08-05T10:09:45.360Z,3.03
2022-08-05T10:12:30.147Z,3.38
2022-08-05T10:15:17.015Z,3.38
2022-08-05T10:18:19.916Z,3.40
2022-08-05T10:20:58.509Z,3.78
2022-08-05T10:23:59.824Z,3.40
2022-08-05T10:26:32.492Z,3.15
2022-08-05T10:29:02.466Z,3.50
2022-08-05T10:32:52.385Z,4.00
2022-08-05T10:34:25.870Z,3.72
2022-08-05T10:37:02.457Z,3.33
2022-08-05T10:39:59.366Z,3.55
2022-08-05T10:42:33.545Z,3.72
2022-08-05T10:45:21.568Z,3.42
2022-08-05T10:48:29.211Z,3.58
2022-08-05T10:51:03.987Z,3.70
2022-08-05T10:53:38.148Z,3.75
2022-08-05T10:56:25.515Z,3.30
2022-08-05T10:58:53.812Z,3.63
2022-08-05T11:01:55.067Z,3.63
2022-08-05T11:04:34.376Z,3.85
2022-08-05T11:07:07.052Z,3.90
2022-08-05T11:09:46.711Z,4.03
2022-08-05T11:12:27.140Z,3.50
2022-08-05T11:15:19.140Z,3.67
2022-08-05T11:17:59.587Z,3.63
2022-08-05T11:21:12.078Z,3.38
2022-08-05T11:24:04.449Z,3.33
2022-08-05T11:27:37.041Z,3.70
2022-08-05T11:30:18.970Z,4.00
2022-08-05T11:32:47.931Z,3.42
2022-08-05T11:36:02.805Z,3.53
2022-08-05T11:38:45.463Z,3.70
2022-08-05T11:41:54.779Z,3.30
2022-08-05T11:44:40.517Z,3.55
2022-08-05T11:47:11.810Z,3.72
2022-08-05T11:49:58.870Z,4.60
2022-08-05T11:52:29.472Z,3.90
2022-08-05T11:54:59.475Z,3.85
2022-08-05T11:58:08.697Z,4.43
2022-08-05T12:00:31.036Z,4.43
2022-08-05T12:03:14.755Z,5.22
2022-08-05T12:05:43.939Z,5.60
2022-08-05T12:08:12.031Z,5.22
2022-08-05T12:10:48.885Z,5.88
2022-08-05T12:13:49.027Z,5.75
2022-08-05T12:16:14.849Z,5.38
2022-08-05T12:18:52.765Z,5.95
2022-08-05T12:21:26.947Z,5.20
2022-08-05T12:24:06.906Z,5.72
2022-08-05T12:26:44.069Z,5.40
2022-08-05T12:29:23.053Z,5.40
2022-08-05T12:32:02.234Z,6.40
2022-08-05T12:34:35.654Z,5.97
2022-08-05T12:37:17.337Z,5.70
2022-08-05T12:39:48.713Z,5.82
2022-08-05T12:42:20.791Z,5.40
2022-08-05T12:44:49.264Z,4.25
2022-08-05T12:47:30.937Z,4.38
2022-08-05T12:50:03.593Z,5.10
2022-08-05T12:52:42.009Z,6.75
2022-08-05T12:55:26.180Z,7.07
2022-08-05T12:58:50.579Z,7.85
2022-08-05T13:02:04.740Z,9.30
2022-08-05T13:03:42.049Z,9.00
2022-08-05T13:06:16.868Z,8.38
2022-08-05T13:08:51.704Z,9.45
2022-08-05T13:12:01.275Z,9.98
2022-08-05T13:14:24.971Z,11.80
2022-08-05T13:17:25.044Z,11.98
2022-08-05T13:20:06.980Z,12.68
2022-08-05T13:22:38.636Z,13.80
2022-08-05T13:25:52.192Z,13.95
2022-08-05T13:28:21.245Z,14.30
2022-08-05T13:30:57.964Z,15.98
2022-08-05T13:34:23.041Z,14.65
2022-08-05T13:36:14.554Z,16.30
2022-08-05T13:38:43.195Z,17.08
2022-08-05T13:41:11.668Z,18.83
2022-08-05T13:43:45.411Z,17.60
2022-08-05T13:46:44.248Z,18.08
2022-08-05T13:49:16.499Z,18.92
2022-08-05T13:51:46.688Z,19.75
2022-08-05T13:54:16.286Z,19.73
2022-08-05T13:56:51.158Z,18.98
2022-08-05T13:59:24.366Z,18.67
2022-08-05T14:01:57.470Z,19.00
2022-08-05T14:04:54.887Z,20.05
2022-08-05T14:07:59.742Z,18.13
2022-08-05T14:10:18.708Z,16.75
2022-08-05T14:12:57.384Z,14.43
2022-08-05T14:16:06.276Z,13.50
2022-08-05T14:18:23.271Z,15.00
2022-08-05T14:20:54.405Z,14.63
2022-08-05T14:23:25.237Z,15.27
2022-08-05T14:25:58.763Z,14.02
2022-08-05T14:28:28.814Z,13.55
2022-08-05T14:30:58.906Z,13.00
2022-08-05T14:33:26.815Z,12.68
2022-08-05T14:35:54.968Z,11.30
2022-08-05T14:38:32.911Z,10.85
2022-08-05T14:41:06.119Z,10.15
2022-08-05T14:43:59.342Z,9.63
2022-08-05T14:46:28.718Z,9.00
2022-08-05T14:49:06.379Z,9.50
2022-08-05T14:51:48.790Z,9.68
2022-08-05T14:54:30.305Z,9.35
2022-08-05T14:57:05.114Z,7.68
2022-08-05T14:59:37.524Z,7.40
2022-08-05T15:02:15.885Z,6.60
2022-08-05T15:04:47.856Z,5.70
2022-08-05T15:08:06.188Z,5.53
2022-08-05T15:10:10.295Z,4.75
2022-08-05T15:13:00.222Z,3.95
2022-08-05T15:15:55.017Z,3.55
2022-08-05T15:18:18.362Z,3.45
2022-08-05T15:20:46.331Z,3.10
2022-08-05T15:23:14.500Z,3.03
2022-08-05T15:25:52.906Z,3.05
2022-08-05T15:28:27.728Z,3.00
2022-08-05T15:30:56.279Z,2.30
2022-08-05T15:34:04.300Z,2.70
2022-08-05T15:36:17.438Z,2.38
2022-08-05T15:40:41.608Z,2.53
2022-08-05T15:41:55.873Z,2.35
2022-08-05T15:44:28.134Z,3.70
2022-08-05T15:47:05.011Z,2.00
2022-08-05T15:49:41.827Z,1.95
2022-08-05T15:52:51.673Z,2.10
2022-08-05T15:55:15.467Z,1.70
2022-08-05T15:57:45.117Z,1.75
2022-08-05T16:00:16.697Z,1.90
2022-08-05T16:02:44.963Z,1.70
2022-08-05T16:05:21.494Z,2.10
2022-08-05T16:07:57.182Z,1.75
2022-08-05T16:10:25.486Z,2.25
2022-08-05T16:13:12.131Z,2.00
2022-08-05T16:16:29.920Z,1.70
2022-08-05T16:19:11.424Z,1.88
2022-08-05T16:22:10.564Z,2.10
2022-08-05T16:24:41.936Z,1.92
2022-08-05T16:27:19.401Z,1.65
2022-08-05T16:30:00.056Z,1.60
2022-08-05T16:32:29.647Z,1.90
2022-08-05T16:34:58.684Z,1.40
2022-08-05T16:38:03.148Z,1.38
2022-08-05T16:40:26.758Z,1.58
2022-08-05T16:42:57.213Z,1.50
2022-08-05T16:46:03.702Z,2.00
2022-08-05T16:48:25.313Z,2.65
2022-08-05T16:50:54.233Z,1.80
2022-08-05T16:53:32.170Z,1.70
2022-08-05T16:56:00.235Z,1.52
2022-08-05T16:58:27.952Z,2.20
2022-08-05T17:00:55.646Z,1.80
2022-08-05T17:03:23.297Z,1.88
2022-08-05T17:05:59.479Z,1.63
2022-08-05T17:08:36.057Z,1.58
2022-08-05T17:11:26.850Z,1.60
2022-08-05T17:14:06.567Z,2.00
2022-08-05T17:16:42.520Z,1.80
2022-08-05T17:19:10.872Z,1.80
2022-08-05T17:21:40.093Z,2.20
2022-08-05T17:24:30.218Z,1.90
2022-08-05T17:27:01.139Z,1.70
2022-08-05T17:29:33.931Z,1.60
2022-08-05T17:32:17.606Z,2.10
2022-08-05T17:34:48.194Z,1.70
2022-08-05T17:37:40.721Z,1.60
2022-08-05T17:40:15.166Z,1.70
2022-08-05T17:42:51.270Z,1.85
2022-08-05T17:45:22.435Z,1.70
2022-08-05T17:47:56.239Z,1.90
2022-08-05T17:50:30.334Z,2.20
2022-08-05T17:53:02.784Z,1.90
2022-08-05T17:55:37.768Z,1.95
2022-08-05T17:58:13.221Z,2.20
2022-08-05T18:00:47.465Z,2.42
2022-08-05T18:03:58.711Z,3.22
2022-08-05T18:06:11.986Z,2.22
2022-08-05T18:08:52.354Z,2.35
2022-08-05T18:11:23.976Z,2.63
2022-08-05T18:13:54.283Z,2.60
2022-08-05T18:16:23.065Z,2.40
2022-08-05T18:18:51.162Z,2.90
2022-08-05T18:21:25.899Z,2.20
2022-08-05T18:23:54.525Z,2.63
2022-08-05T18:26:27.432Z,2.55
2022-08-05T18:28:56.434Z,2.33
2022-08-05T18:31:24.523Z,2.40
2022-08-05T18:33:57.974Z,3.03
2022-08-05T18:36:31.549Z,2.45
2022-08-05T18:38:59.234Z,2.88
2022-08-05T18:41:57.640Z,2.90
2022-08-05T18:44:14.624Z,3.00
2022-08-05T18:47:12.145Z,2.38
2022-08-05T18:50:00.216Z,2.70
2022-08-05T18:52:35.995Z,2.90
2022-08-05T18:55:05.998Z,2.65
2022-08-05T18:57:50.046Z,2.70
2022-08-05T19:00:28.940Z,2.60
2022-08-05T19:03:03.718Z,2.53
2022-08-05T19:06:11.285Z,2.60
2022-08-05T19:08:22.429Z,2.70
2022-08-05T19:10:59.556Z,2.75
2022-08-05T19:13:35.568Z,2.78
2022-08-05T19:16:05.634Z,2.60
2022-08-05T19:18:53.510Z,2.88
2022-08-05T19:21:25.428Z,3.10
2022-08-05T19:24:05.272Z,2.83
2022-08-05T19:26:36.686Z,2.75
2022-08-05T19:29:26.530Z,2.90
2022-08-05T19:32:04.748Z,3.00
2022-08-05T19:34:39.718Z,2.70
2022-08-05T19:37:08.313Z,2.80
2022-08-05T19:39:45.500Z,3.80
2022-08-05T19:42:35.436Z,2.90
2022-08-05T19:45:06.027Z,2.90
2022-08-05T19:47:40.275Z,2.63
2022-08-05T19:50:11.964Z,3.10
2022-08-05T19:52:40.118Z,2.97
2022-08-05T19:56:12.610Z,2.88
2022-08-05T19:58:19.718Z,3.28
2022-08-05T20:00:47.091Z,3.20
2022-08-05T20:03:18.165Z,2.97
2022-08-05T20:05:50.268Z,3.13
2022-08-05T20:08:25.031Z,3.63
2022-08-05T20:10:55.074Z,3.35
2022-08-05T20:13:30.022Z,2.70
2022-08-05T20:16:10.435Z,3.50
2022-08-05T20:18:38.467Z,2.88
2022-08-05T20:21:07.172Z,3.20
2022-08-05T20:23:44.523Z,3.00
2022-08-05T20:26:26.462Z,2.60
2022-08-05T20:28:56.413Z,3.20
2022-08-05T20:31:37.313Z,2.80
2022-08-05T20:34:14.282Z,3.50
2022-08-05T20:36:43.262Z,2.33
2022-08-05T20:39:16.665Z,2.80
2022-08-05T20:41:47.991Z,3.13
2022-08-05T20:44:30.512Z,2.28
2022-08-05T20:47:08.419Z,2.33
2022-08-05T20:49:39.542Z,2.85
2022-08-05T20:52:08.868Z,2.40
2022-08-05T20:54:42.805Z,2.63
2022-08-05T20:57:24.748Z,1.75
2022-08-05T21:00:36.336Z,2.70
2022-08-05T21:03:06.301Z,2.20
2022-08-05T21:05:47.825Z,2.30
2022-08-05T21:08:35.984Z,2.50
2022-08-05T21:11:15.268Z,1.80
2022-08-05T21:14:01.323Z,1.90
2022-08-05T21:16:30.918Z,1.88
2022-08-05T21:19:00.309Z,1.85
2022-08-05T21:21:43.739Z,1.85
2022-08-05T21:24:19.605Z,2.20
2022-08-05T21:26:58.640Z,1.95
2022-08-05T21:29:32.117Z,1.95
2022-08-05T21:32:04.864Z,2.10
2022-08-05T21:34:33.083Z,1.85
2022-08-05T21:37:09.982Z,1.67
2022-08-05T21:39:40.476Z,1.80
2022-08-05T21:42:30.718Z,1.83
2022-08-05T21:44:57.143Z,1.58
2022-08-05T21:47:55.129Z,1.80
2022-08-05T21:50:13.634Z,2.10
2022-08-05T21:52:47.383Z,1.80
2022-08-05T21:55:15.249Z,2.08
2022-08-05T21:57:42.970Z,1.90
2022-08-05T22:00:12.087Z,2.00
2022-08-05T22:02:44.701Z,1.70
2022-08-05T22:05:13.766Z,1.75
2022-08-05T22:08:02.318Z,1.73
2022-08-05T22:10:30.067Z,2.10
2022-08-05T22:13:08.779Z,2.15
2022-08-05T22:16:02.491Z,1.70
2022-08-05T22:18:35.118Z,1.48
2022-08-05T22:21:04.697Z,1.88
2022-08-05T22:24:01.087Z,1.80
2022-08-05T22:26:50.492Z,1.60
2022-08-05T22:29:26.773Z,1.63
2022-08-05T22:31:59.604Z,1.67
2022-08-05T22:34:32.490Z,1.85
2022-08-05T22:37:00.867Z,1.40
2022-08-05T22:39:33.959Z,1.88
2022-08-05T22:42:12.186Z,1.83
2022-08-05T22:44:53.595Z,2.03
2022-08-05T22:47:29.651Z,1.90
2022-08-05T22:50:20.226Z,1.93
2022-08-05T22:52:51.420Z,1.83
2022-08-05T22:55:21.600Z,2.10
2022-08-05T22:57:52.811Z,2.10
2022-08-05T23:00:22.877Z,2.00
2022-08-05T23:02:53.146Z,2.28
2022-08-05T23:05:24.303Z,2.00
2022-08-05T23:07:52.293Z,2.13
2022-08-05T23:10:23.616Z,2.15
2022-08-05T23:12:55.041Z,2.08
2022-08-05T23:15:29.078Z,2.13
2022-08-05T23:18:00.997Z,2.00
2022-08-05T23:20:30.985Z,2.20
2022-08-05T23:22:59.067Z,2.37
2022-08-05T23:25:51.448Z,2.00
2022-08-05T23:28:15.695Z,2.33
2022-08-05T23:30:52.849Z,2.20
2022-08-05T23:33:26.300Z,2.17
2022-08-05T23:36:11.180Z,2.30
2022-08-05T23:38:42.977Z,2.43
2022-08-05T23:41:11.531Z,2.03
2022-08-05T23:44:04.698Z,2.00
2022-08-05T23:46:28.144Z,2.07
2022-08-05T23:49:00.213Z,2.37
2022-08-05T23:51:53.301Z,2.40
2022-08-05T23:54:30.452Z,2.50
2022-08-05T23:57:05.593Z,2.70
